sensor_id;sensor_type;location;lat;lon;timestamp;temperature;humidity
16521;DHT22;8373;48.110;11.522;2023-06-10T00:00:29;21.60;58.70
16521;DHT22;8373;48.110;11.522;2023-06-10T00:03:24;21.50;58.70
16521;DHT22;8373;48.110;11.522;2023-06-10T00:05:56;21.50;58.70
16521;DHT22;8373;48.110;11.522;2023-06-10T00:08:24;21.50;58.80
16521;DHT22;8373;48.110;11.522;2023-06-10T00:10:52;21.50;58.70
16521;DHT22;8373;48.110;11.522;2023-06-10T00:13:20;21.50;58.60
16521;DHT22;8373;48.110;11.522;2023-06-10T00:15:49;21.50;58.80
16521;DHT22;8373;48.110;11.522;2023-06-10T00:18:17;21.50;58.80
16521;DHT22;8373;48.110;11.522;2023-06-10T00:20:49;21.40;58.70
16521;DHT22;8373;48.110;11.522;2023-06-10T00:23:23;21.50;58.80
16521;DHT22;8373;48.110;11.522;2023-06-10T00:25:56;21.40;58.80
16521;DHT22;8373;48.110;11.522;2023-06-10T00:28:27;21.40;58.80
16521;DHT22;8373;48.110;11.522;2023-06-10T00:30:58;21.40;58.60
16521;DHT22;8373;48.110;11.522;2023-06-10T00:33:28;21.30;58.80
16521;DHT22;8373;48.110;11.522;2023-06-10T00:35:59;21.30;58.80
16521;DHT22;8373;48.110;11.522;2023-06-10T00:38:34;21.30;59.00
16521;DHT22;8373;48.110;11.522;2023-06-10T00:41:06;21.30;58.80
16521;DHT22;8373;48.110;11.522;2023-06-10T00:43:39;21.20;58.70
16521;DHT22;8373;48.110;11.522;2023-06-10T00:46:10;21.20;58.80
16521;DHT22;8373;48.110;11.522;2023-06-10T00:48:42;21.00;59.00
16521;DHT22;8373;48.110;11.522;2023-06-10T00:51:18;21.00;59.20
16521;DHT22;8373;48.110;11.522;2023-06-10T00:53:53;20.90;59.30
16521;DHT22;8373;48.110;11.522;2023-06-10T00:56:25;20.80;59.40
16521;DHT22;8373;48.110;11.522;2023-06-10T00:58:58;20.80;59.60
16521;DHT22;8373;48.110;11.522;2023-06-10T01:01:34;20.80;59.70
16521;DHT22;8373;48.110;11.522;2023-06-10T01:04:12;20.80;60.00
16521;DHT22;8373;48.110;11.522;2023-06-10T01:06:53;20.70;60.20
16521;DHT22;8373;48.110;11.522;2023-06-10T01:09:33;20.80;60.20
16521;DHT22;8373;48.110;11.522;2023-06-10T01:12:12;20.70;60.30
16521;DHT22;8373;48.110;11.522;2023-06-10T01:14:47;20.70;60.40
16521;DHT22;8373;48.110;11.522;2023-06-10T01:17:21;20.70;60.70
16521;DHT22;8373;48.110;11.522;2023-06-10T01:19:57;20.70;60.90
16521;DHT22;8373;48.110;11.522;2023-06-10T01:22:41;20.70;60.60
16521;DHT22;8373;48.110;11.522;2023-06-10T01:25:13;20.70;60.90
16521;DHT22;8373;48.110;11.522;2023-06-10T01:27:47;20.70;60.90
16521;DHT22;8373;48.110;11.522;2023-06-10T01:30:20;20.70;60.80
16521;DHT22;8373;48.110;11.522;2023-06-10T01:32:57;20.70;60.90
16521;DHT22;8373;48.110;11.522;2023-06-10T01:35:31;20.60;60.80
16521;DHT22;8373;48.110;11.522;2023-06-10T01:38:10;20.60;60.80
16521;DHT22;8373;48.110;11.522;2023-06-10T01:40:47;20.60;60.80
16521;DHT22;8373;48.110;11.522;2023-06-10T01:43:31;20.50;61.30
16521;DHT22;8373;48.110;11.522;2023-06-10T01:46:27;20.40;61.60
16521;DHT22;8373;48.110;11.522;2023-06-10T01:49:19;20.40;61.90
16521;DHT22;8373;48.110;11.522;2023-06-10T01:52:04;20.30;62.10
16521;DHT22;8373;48.110;11.522;2023-06-10T01:55:00;20.20;62.40
16521;DHT22;8373;48.110;11.522;2023-06-10T01:57:42;20.20;62.60
16521;DHT22;8373;48.110;11.522;2023-06-10T02:00:25;20.20;62.80
16521;DHT22;8373;48.110;11.522;2023-06-10T02:03:02;20.20;62.80
16521;DHT22;8373;48.110;11.522;2023-06-10T02:05:43;20.20;62.80
16521;DHT22;8373;48.110;11.522;2023-06-10T02:08:19;20.20;63.10
16521;DHT22;8373;48.110;11.522;2023-06-10T02:10:54;20.20;63.30
16521;DHT22;8373;48.110;11.522;2023-06-10T02:13:25;20.30;63.30
16521;DHT22;8373;48.110;11.522;2023-06-10T02:15:57;20.30;63.20
16521;DHT22;8373;48.110;11.522;2023-06-10T02:18:41;20.40;63.30
16521;DHT22;8373;48.110;11.522;2023-06-10T02:21:32;20.40;63.70
16521;DHT22;8373;48.110;11.522;2023-06-10T02:24:31;20.40;62.90
16521;DHT22;8373;48.110;11.522;2023-06-10T02:27:34;20.30;62.90
16521;DHT22;8373;48.110;11.522;2023-06-10T02:30:19;20.30;62.40
16521;DHT22;8373;48.110;11.522;2023-06-10T02:32:51;20.20;63.20
16521;DHT22;8373;48.110;11.522;2023-06-10T02:35:23;20.20;63.60
16521;DHT22;8373;48.110;11.522;2023-06-10T02:37:53;20.10;63.60
16521;DHT22;8373;48.110;11.522;2023-06-10T02:40:23;20.20;63.90
16521;DHT22;8373;48.110;11.522;2023-06-10T02:42:55;20.20;64.00
16521;DHT22;8373;48.110;11.522;2023-06-10T02:45:26;20.30;64.00
16521;DHT22;8373;48.110;11.522;2023-06-10T02:47:56;20.30;63.70
16521;DHT22;8373;48.110;11.522;2023-06-10T02:50:27;20.30;63.90
16521;DHT22;8373;48.110;11.522;2023-06-10T02:52:56;20.30;63.90
16521;DHT22;8373;48.110;11.522;2023-06-10T02:55:25;20.30;63.80
16521;DHT22;8373;48.110;11.522;2023-06-10T02:57:58;20.40;63.60
16521;DHT22;8373;48.110;11.522;2023-06-10T03:00:27;20.30;63.40
16521;DHT22;8373;48.110;11.522;2023-06-10T03:02:57;20.30;64.40
16521;DHT22;8373;48.110;11.522;2023-06-10T03:05:30;20.20;63.90
16521;DHT22;8373;48.110;11.522;2023-06-10T03:08:00;20.30;64.20
16521;DHT22;8373;48.110;11.522;2023-06-10T03:10:32;20.20;64.20
16521;DHT22;8373;48.110;11.522;2023-06-10T03:13:07;20.20;64.10
16521;DHT22;8373;48.110;11.522;2023-06-10T03:15:42;20.20;64.20
16521;DHT22;8373;48.110;11.522;2023-06-10T03:18:27;20.10;64.20
16521;DHT22;8373;48.110;11.522;2023-06-10T03:21:08;20.20;64.50
16521;DHT22;8373;48.110;11.522;2023-06-10T03:23:49;20.10;64.30
16521;DHT22;8373;48.110;11.522;2023-06-10T03:26:42;20.10;64.50
16521;DHT22;8373;48.110;11.522;2023-06-10T03:29:40;20.10;64.50
16521;DHT22;8373;48.110;11.522;2023-06-10T03:32:40;20.10;64.60
16521;DHT22;8373;48.110;11.522;2023-06-10T03:35:47;20.10;64.90
16521;DHT22;8373;48.110;11.522;2023-06-10T03:38:29;20.10;65.10
16521;DHT22;8373;48.110;11.522;2023-06-10T03:41:11;20.10;65.10
16521;DHT22;8373;48.110;11.522;2023-06-10T03:43:54;20.20;65.30
16521;DHT22;8373;48.110;11.522;2023-06-10T03:46:37;20.10;65.20
16521;DHT22;8373;48.110;11.522;2023-06-10T03:49:14;20.10;65.30
16521;DHT22;8373;48.110;11.522;2023-06-10T03:51:57;20.10;65.30
16521;DHT22;8373;48.110;11.522;2023-06-10T03:54:39;20.00;65.10
16521;DHT22;8373;48.110;11.522;2023-06-10T03:57:23;20.00;65.10
16521;DHT22;8373;48.110;11.522;2023-06-10T04:00:09;20.00;65.30
16521;DHT22;8373;48.110;11.522;2023-06-10T04:02:58;19.90;65.30
16521;DHT22;8373;48.110;11.522;2023-06-10T04:05:57;20.00;65.60
16521;DHT22;8373;48.110;11.522;2023-06-10T04:08:38;20.00;65.40
16521;DHT22;8373;48.110;11.522;2023-06-10T04:11:33;19.90;65.70
16521;DHT22;8373;48.110;11.522;2023-06-10T04:14:24;20.00;65.90
16521;DHT22;8373;48.110;11.522;2023-06-10T04:17:02;20.00;66.00
16521;DHT22;8373;48.110;11.522;2023-06-10T04:19:51;19.90;66.20
16521;DHT22;8373;48.110;11.522;2023-06-10T04:22:32;19.90;66.60
16521;DHT22;8373;48.110;11.522;2023-06-10T04:25:11;20.00;67.20
16521;DHT22;8373;48.110;11.522;2023-06-10T04:27:55;20.00;67.30
16521;DHT22;8373;48.110;11.522;2023-06-10T04:30:30;20.00;67.80
16521;DHT22;8373;48.110;11.522;2023-06-10T04:33:07;20.00;67.90
16521;DHT22;8373;48.110;11.522;2023-06-10T04:39:33;20.00;68.20
16521;DHT22;8373;48.110;11.522;2023-06-10T04:42:09;20.00;68.50
16521;DHT22;8373;48.110;11.522;2023-06-10T04:44:48;20.00;68.70
16521;DHT22;8373;48.110;11.522;2023-06-10T04:47:22;20.00;68.90
16521;DHT22;8373;48.110;11.522;2023-06-10T04:49:52;19.90;69.60
16521;DHT22;8373;48.110;11.522;2023-06-10T04:52:22;20.00;69.20
16521;DHT22;8373;48.110;11.522;2023-06-10T04:54:55;20.00;69.20
16521;DHT22;8373;48.110;11.522;2023-06-10T04:57:25;20.00;69.40
16521;DHT22;8373;48.110;11.522;2023-06-10T04:59:56;19.90;69.30
16521;DHT22;8373;48.110;11.522;2023-06-10T05:02:39;19.90;69.60
16521;DHT22;8373;48.110;11.522;2023-06-10T05:05:28;19.80;69.70
16521;DHT22;8373;48.110;11.522;2023-06-10T05:08:22;19.70;70.10
16521;DHT22;8373;48.110;11.522;2023-06-10T05:11:28;19.70;70.50
16521;DHT22;8373;48.110;11.522;2023-06-10T05:15:01;19.70;70.70
16521;DHT22;8373;48.110;11.522;2023-06-10T05:21:51;19.60;71.60
16521;DHT22;8373;48.110;11.522;2023-06-10T05:25:17;19.70;71.80
16521;DHT22;8373;48.110;11.522;2023-06-10T05:42:39;19.90;72.50
16521;DHT22;8373;48.110;11.522;2023-06-10T05:45:34;19.90;72.50
16521;DHT22;8373;48.110;11.522;2023-06-10T05:48:23;20.00;72.80
16521;DHT22;8373;48.110;11.522;2023-06-10T05:51:13;20.00;72.60
16521;DHT22;8373;48.110;11.522;2023-06-10T05:53:45;20.00;72.60
16521;DHT22;8373;48.110;11.522;2023-06-10T05:56:14;20.00;72.60
16521;DHT22;8373;48.110;11.522;2023-06-10T05:58:48;20.10;72.80
16521;DHT22;8373;48.110;11.522;2023-06-10T06:01:18;20.10;72.80
16521;DHT22;8373;48.110;11.522;2023-06-10T06:03:48;20.10;72.50
16521;DHT22;8373;48.110;11.522;2023-06-10T06:06:32;20.20;72.80
16521;DHT22;8373;48.110;11.522;2023-06-10T06:09:37;20.20;72.80
16521;DHT22;8373;48.110;11.522;2023-06-10T06:12:28;20.40;73.00
16521;DHT22;8373;48.110;11.522;2023-06-10T06:15:00;20.50;72.30
16521;DHT22;8373;48.110;11.522;2023-06-10T06:17:34;20.60;72.10
16521;DHT22;8373;48.110;11.522;2023-06-10T06:20:05;20.80;72.30
16521;DHT22;8373;48.110;11.522;2023-06-10T06:22:36;20.90;71.50
16521;DHT22;8373;48.110;11.522;2023-06-10T06:25:07;21.10;70.90
16521;DHT22;8373;48.110;11.522;2023-06-10T06:27:36;21.30;70.00
16521;DHT22;8373;48.110;11.522;2023-06-10T06:30:07;21.40;69.60
16521;DHT22;8373;48.110;11.522;2023-06-10T06:32:36;21.60;69.40
16521;DHT22;8373;48.110;11.522;2023-06-10T06:35:06;21.80;68.70
16521;DHT22;8373;48.110;11.522;2023-06-10T06:37:36;22.00;68.40
16521;DHT22;8373;48.110;11.522;2023-06-10T06:40:06;22.10;67.80
16521;DHT22;8373;48.110;11.522;2023-06-10T06:42:36;22.20;67.30
16521;DHT22;8373;48.110;11.522;2023-06-10T06:45:09;22.30;66.90
16521;DHT22;8373;48.110;11.522;2023-06-10T06:47:38;22.30;66.30
16521;DHT22;8373;48.110;11.522;2023-06-10T06:50:08;22.20;66.30
16521;DHT22;8373;48.110;11.522;2023-06-10T06:52:37;22.10;66.30
16521;DHT22;8373;48.110;11.522;2023-06-10T06:55:08;22.00;66.50
16521;DHT22;8373;48.110;11.522;2023-06-10T06:57:38;21.90;67.00
16521;DHT22;8373;48.110;11.522;2023-06-10T07:00:10;21.90;67.70
16521;DHT22;8373;48.110;11.522;2023-06-10T07:02:49;22.10;67.60
16521;DHT22;8373;48.110;11.522;2023-06-10T07:05:24;22.20;67.60
16521;DHT22;8373;48.110;11.522;2023-06-10T07:08:19;22.40;66.70
16521;DHT22;8373;48.110;11.522;2023-06-10T07:10:55;22.50;66.30
16521;DHT22;8373;48.110;11.522;2023-06-10T07:13:45;22.60;66.50
16521;DHT22;8373;48.110;11.522;2023-06-10T07:16:35;22.70;65.90
16521;DHT22;8373;48.110;11.522;2023-06-10T07:19:22;22.80;65.20
16521;DHT22;8373;48.110;11.522;2023-06-10T07:22:09;22.80;65.00
16521;DHT22;8373;48.110;11.522;2023-06-10T07:24:46;22.90;65.40
16521;DHT22;8373;48.110;11.522;2023-06-10T07:27:33;23.10;64.80
16521;DHT22;8373;48.110;11.522;2023-06-10T07:30:16;23.20;64.30
16521;DHT22;8373;48.110;11.522;2023-06-10T07:33:07;23.30;63.80
16521;DHT22;8373;48.110;11.522;2023-06-10T07:35:57;23.40;63.00
16521;DHT22;8373;48.110;11.522;2023-06-10T07:38:43;23.40;62.70
16521;DHT22;8373;48.110;11.522;2023-06-10T07:41:16;23.50;62.60
16521;DHT22;8373;48.110;11.522;2023-06-10T07:43:48;23.50;62.50
16521;DHT22;8373;48.110;11.522;2023-06-10T07:46:27;23.50;61.20
16521;DHT22;8373;48.110;11.522;2023-06-10T07:49:19;23.50;61.50
16521;DHT22;8373;48.110;11.522;2023-06-10T07:51:56;23.60;60.40
16521;DHT22;8373;48.110;11.522;2023-06-10T07:54:34;23.70;60.60
16521;DHT22;8373;48.110;11.522;2023-06-10T07:57:17;23.70;60.20
16521;DHT22;8373;48.110;11.522;2023-06-10T08:00:00;23.70;60.40
16521;DHT22;8373;48.110;11.522;2023-06-10T08:02:40;23.80;59.90
16521;DHT22;8373;48.110;11.522;2023-06-10T08:05:26;23.90;60.30
16521;DHT22;8373;48.110;11.522;2023-06-10T08:08:01;24.00;60.00
16521;DHT22;8373;48.110;11.522;2023-06-10T08:10:33;24.00;59.40
16521;DHT22;8373;48.110;11.522;2023-06-10T08:13:09;24.10;59.10
16521;DHT22;8373;48.110;11.522;2023-06-10T08:15:51;24.20;59.50
16521;DHT22;8373;48.110;11.522;2023-06-10T08:18:24;24.40;59.70
16521;DHT22;8373;48.110;11.522;2023-06-10T08:20:58;24.50;58.90
16521;DHT22;8373;48.110;11.522;2023-06-10T08:23:32;24.50;58.60
16521;DHT22;8373;48.110;11.522;2023-06-10T08:26:01;24.60;58.40
16521;DHT22;8373;48.110;11.522;2023-06-10T08:28:30;24.60;57.60
16521;DHT22;8373;48.110;11.522;2023-06-10T08:30:58;24.60;58.00
16521;DHT22;8373;48.110;11.522;2023-06-10T08:33:29;24.60;58.20
16521;DHT22;8373;48.110;11.522;2023-06-10T08:35:58;24.60;58.30
16521;DHT22;8373;48.110;11.522;2023-06-10T08:38:28;24.60;57.60
16521;DHT22;8373;48.110;11.522;2023-06-10T08:40:59;24.70;57.80
16521;DHT22;8373;48.110;11.522;2023-06-10T08:43:33;24.80;57.70
16521;DHT22;8373;48.110;11.522;2023-06-10T08:46:03;24.70;56.50
16521;DHT22;8373;48.110;11.522;2023-06-10T08:48:35;24.50;56.60
16521;DHT22;8373;48.110;11.522;2023-06-10T08:51:07;24.40;57.30
16521;DHT22;8373;48.110;11.522;2023-06-10T08:53:38;24.50;57.40
16521;DHT22;8373;48.110;11.522;2023-06-10T08:56:09;24.60;56.70
16521;DHT22;8373;48.110;11.522;2023-06-10T08:58:39;24.60;56.70
16521;DHT22;8373;48.110;11.522;2023-06-10T09:01:09;24.60;57.00
16521;DHT22;8373;48.110;11.522;2023-06-10T09:03:37;24.60;57.30
16521;DHT22;8373;48.110;11.522;2023-06-10T09:06:07;24.60;57.10
16521;DHT22;8373;48.110;11.522;2023-06-10T09:08:37;24.60;57.60
16521;DHT22;8373;48.110;11.522;2023-06-10T09:11:05;24.70;56.80
16521;DHT22;8373;48.110;11.522;2023-06-10T09:13:32;24.70;56.60
16521;DHT22;8373;48.110;11.522;2023-06-10T09:16:00;24.70;57.40
16521;DHT22;8373;48.110;11.522;2023-06-10T09:18:28;24.70;57.80
16521;DHT22;8373;48.110;11.522;2023-06-10T09:20:56;24.60;58.00
16521;DHT22;8373;48.110;11.522;2023-06-10T09:23:26;24.40;58.50
16521;DHT22;8373;48.110;11.522;2023-06-10T09:25:59;24.60;58.80
16521;DHT22;8373;48.110;11.522;2023-06-10T09:28:30;24.80;58.70
16521;DHT22;8373;48.110;11.522;2023-06-10T09:31:03;24.90;57.70
16521;DHT22;8373;48.110;11.522;2023-06-10T09:33:33;24.90;57.10
16521;DHT22;8373;48.110;11.522;2023-06-10T09:36:05;24.80;57.60
16521;DHT22;8373;48.110;11.522;2023-06-10T09:38:36;24.80;57.80
16521;DHT22;8373;48.110;11.522;2023-06-10T09:41:08;24.80;57.60
16521;DHT22;8373;48.110;11.522;2023-06-10T09:43:45;24.80;57.40
16521;DHT22;8373;48.110;11.522;2023-06-10T09:46:44;24.90;57.50
16521;DHT22;8373;48.110;11.522;2023-06-10T09:49:49;24.80;56.70
16521;DHT22;8373;48.110;11.522;2023-06-10T09:52:51;24.70;57.00
16521;DHT22;8373;48.110;11.522;2023-06-10T09:55:39;24.70;57.60
16521;DHT22;8373;48.110;11.522;2023-06-10T09:58:15;24.70;57.30
16521;DHT22;8373;48.110;11.522;2023-06-10T10:00:55;24.60;57.10
16521;DHT22;8373;48.110;11.522;2023-06-10T10:03:31;24.60;56.30
16521;DHT22;8373;48.110;11.522;2023-06-10T10:06:33;24.60;56.30
16521;DHT22;8373;48.110;11.522;2023-06-10T10:09:29;24.70;56.60
16521;DHT22;8373;48.110;11.522;2023-06-10T10:12:13;24.90;56.60
16521;DHT22;8373;48.110;11.522;2023-06-10T10:14:47;25.00;55.30
16521;DHT22;8373;48.110;11.522;2023-06-10T10:17:20;25.10;55.10
16521;DHT22;8373;48.110;11.522;2023-06-10T10:19:54;25.20;54.50
16521;DHT22;8373;48.110;11.522;2023-06-10T10:22:28;25.20;53.60
16521;DHT22;8373;48.110;11.522;2023-06-10T10:25:02;25.20;52.80
16521;DHT22;8373;48.110;11.522;2023-06-10T10:27:36;25.30;53.60
16521;DHT22;8373;48.110;11.522;2023-06-10T10:30:12;25.50;53.20
16521;DHT22;8373;48.110;11.522;2023-06-10T10:32:51;25.50;52.10
16521;DHT22;8373;48.110;11.522;2023-06-10T10:35:23;25.40;52.20
16521;DHT22;8373;48.110;11.522;2023-06-10T10:37:55;25.30;51.70
16521;DHT22;8373;48.110;11.522;2023-06-10T10:40:25;25.20;52.00
16521;DHT22;8373;48.110;11.522;2023-06-10T10:43:03;25.10;52.30
16521;DHT22;8373;48.110;11.522;2023-06-10T10:45:35;25.10;52.30
16521;DHT22;8373;48.110;11.522;2023-06-10T10:48:07;25.00;52.60
16521;DHT22;8373;48.110;11.522;2023-06-10T10:50:39;24.90;52.50
16521;DHT22;8373;48.110;11.522;2023-06-10T10:53:13;24.80;52.10
16521;DHT22;8373;48.110;11.522;2023-06-10T10:56:04;24.90;52.20
16521;DHT22;8373;48.110;11.522;2023-06-10T10:58:43;24.90;52.50
16521;DHT22;8373;48.110;11.522;2023-06-10T11:01:41;25.00;52.50
16521;DHT22;8373;48.110;11.522;2023-06-10T11:04:13;25.00;52.60
16521;DHT22;8373;48.110;11.522;2023-06-10T11:06:52;25.00;53.20
16521;DHT22;8373;48.110;11.522;2023-06-10T11:09:29;25.10;52.90
16521;DHT22;8373;48.110;11.522;2023-06-10T11:11:59;25.20;52.70
16521;DHT22;8373;48.110;11.522;2023-06-10T11:14:31;25.30;52.00
16521;DHT22;8373;48.110;11.522;2023-06-10T11:17:19;25.50;51.80
16521;DHT22;8373;48.110;11.522;2023-06-10T11:19:49;25.70;51.60
16521;DHT22;8373;48.110;11.522;2023-06-10T11:22:19;25.90;51.30
16521;DHT22;8373;48.110;11.522;2023-06-10T11:24:51;26.00;51.40
16521;DHT22;8373;48.110;11.522;2023-06-10T11:27:23;26.10;50.50
16521;DHT22;8373;48.110;11.522;2023-06-10T11:29:58;26.10;50.50
16521;DHT22;8373;48.110;11.522;2023-06-10T11:32:51;26.10;50.40
16521;DHT22;8373;48.110;11.522;2023-06-10T11:35:26;26.10;49.60
16521;DHT22;8373;48.110;11.522;2023-06-10T11:37:58;26.20;49.80
16521;DHT22;8373;48.110;11.522;2023-06-10T11:40:32;26.20;50.50
16521;DHT22;8373;48.110;11.522;2023-06-10T11:43:09;26.30;50.10
16521;DHT22;8373;48.110;11.522;2023-06-10T11:45:53;26.30;49.80
16521;DHT22;8373;48.110;11.522;2023-06-10T11:48:39;26.40;49.00
16521;DHT22;8373;48.110;11.522;2023-06-10T11:51:28;26.50;48.80
16521;DHT22;8373;48.110;11.522;2023-06-10T11:54:03;26.50;49.00
16521;DHT22;8373;48.110;11.522;2023-06-10T11:56:38;26.60;49.20
16521;DHT22;8373;48.110;11.522;2023-06-10T11:59:21;26.60;49.00
16521;DHT22;8373;48.110;11.522;2023-06-10T12:02:03;26.70;49.00
16521;DHT22;8373;48.110;11.522;2023-06-10T12:04:44;26.70;48.50
16521;DHT22;8373;48.110;11.522;2023-06-10T12:07:25;26.80;48.00
16521;DHT22;8373;48.110;11.522;2023-06-10T12:10:03;26.80;48.30
16521;DHT22;8373;48.110;11.522;2023-06-10T12:12:35;26.90;48.10
16521;DHT22;8373;48.110;11.522;2023-06-10T12:15:08;27.00;47.60
16521;DHT22;8373;48.110;11.522;2023-06-10T12:17:42;26.80;47.40
16521;DHT22;8373;48.110;11.522;2023-06-10T12:20:25;26.80;47.30
16521;DHT22;8373;48.110;11.522;2023-06-10T12:22:59;26.70;47.60
16521;DHT22;8373;48.110;11.522;2023-06-10T12:25:29;26.60;47.60
16521;DHT22;8373;48.110;11.522;2023-06-10T12:28:00;26.50;47.30
16521;DHT22;8373;48.110;11.522;2023-06-10T12:30:31;26.40;47.30
16521;DHT22;8373;48.110;11.522;2023-06-10T12:33:05;26.40;48.50
16521;DHT22;8373;48.110;11.522;2023-06-10T12:35:52;26.60;48.00
16521;DHT22;8373;48.110;11.522;2023-06-10T12:38:25;26.90;47.40
16521;DHT22;8373;48.110;11.522;2023-06-10T12:41:03;27.00;46.50
16521;DHT22;8373;48.110;11.522;2023-06-10T12:43:36;26.90;46.30
16521;DHT22;8373;48.110;11.522;2023-06-10T12:46:13;26.80;46.40
16521;DHT22;8373;48.110;11.522;2023-06-10T12:48:54;26.80;46.40
16521;DHT22;8373;48.110;11.522;2023-06-10T12:51:25;26.80;46.60
16521;DHT22;8373;48.110;11.522;2023-06-10T12:53:55;27.00;45.70
16521;DHT22;8373;48.110;11.522;2023-06-10T12:56:27;27.10;45.10
16521;DHT22;8373;48.110;11.522;2023-06-10T12:58:57;27.20;44.80
16521;DHT22;8373;48.110;11.522;2023-06-10T13:01:27;27.30;44.40
16521;DHT22;8373;48.110;11.522;2023-06-10T13:03:59;27.40;44.40
16521;DHT22;8373;48.110;11.522;2023-06-10T13:06:29;27.40;46.00
16521;DHT22;8373;48.110;11.522;2023-06-10T13:09:00;27.30;44.30
16521;DHT22;8373;48.110;11.522;2023-06-10T13:11:30;27.30;44.00
16521;DHT22;8373;48.110;11.522;2023-06-10T13:13:59;27.20;44.10
16521;DHT22;8373;48.110;11.522;2023-06-10T13:16:30;27.00;44.70
16521;DHT22;8373;48.110;11.522;2023-06-10T13:19:00;26.90;47.90
16521;DHT22;8373;48.110;11.522;2023-06-10T13:21:32;26.90;50.20
16521;DHT22;8373;48.110;11.522;2023-06-10T13:24:05;26.90;50.30
16521;DHT22;8373;48.110;11.522;2023-06-10T13:26:39;26.70;50.40
16521;DHT22;8373;48.110;11.522;2023-06-10T13:29:15;26.40;51.20
16521;DHT22;8373;48.110;11.522;2023-06-10T13:31:48;26.30;51.50
16521;DHT22;8373;48.110;11.522;2023-06-10T13:34:23;26.30;52.00
16521;DHT22;8373;48.110;11.522;2023-06-10T13:36:52;26.20;52.10
16521;DHT22;8373;48.110;11.522;2023-06-10T13:39:30;26.10;52.60
16521;DHT22;8373;48.110;11.522;2023-06-10T13:42:06;26.10;52.80
16521;DHT22;8373;48.110;11.522;2023-06-10T13:44:54;26.00;52.30
16521;DHT22;8373;48.110;11.522;2023-06-10T13:47:33;25.90;52.50
16521;DHT22;8373;48.110;11.522;2023-06-10T13:50:15;26.00;53.00
16521;DHT22;8373;48.110;11.522;2023-06-10T13:52:52;26.20;53.10
16521;DHT22;8373;48.110;11.522;2023-06-10T13:55:26;26.30;52.20
16521;DHT22;8373;48.110;11.522;2023-06-10T13:57:59;26.50;51.20
16521;DHT22;8373;48.110;11.522;2023-06-10T14:00:34;26.50;50.50
16521;DHT22;8373;48.110;11.522;2023-06-10T14:03:11;26.40;50.50
16521;DHT22;8373;48.110;11.522;2023-06-10T14:05:42;26.40;50.20
16521;DHT22;8373;48.110;11.522;2023-06-10T14:08:12;26.40;50.60
16521;DHT22;8373;48.110;11.522;2023-06-10T14:10:40;26.50;49.90
16521;DHT22;8373;48.110;11.522;2023-06-10T14:13:09;26.50;49.40
16521;DHT22;8373;48.110;11.522;2023-06-10T14:15:38;26.60;49.60
16521;DHT22;8373;48.110;11.522;2023-06-10T14:18:06;26.70;49.20
16521;DHT22;8373;48.110;11.522;2023-06-10T14:20:34;26.70;48.20
16521;DHT22;8373;48.110;11.522;2023-06-10T14:23:11;26.80;48.20
16521;DHT22;8373;48.110;11.522;2023-06-10T14:25:42;26.90;47.70
16521;DHT22;8373;48.110;11.522;2023-06-10T14:28:11;26.90;46.70
16521;DHT22;8373;48.110;11.522;2023-06-10T14:30:40;26.90;45.90
16521;DHT22;8373;48.110;11.522;2023-06-10T14:33:09;26.80;47.00
16521;DHT22;8373;48.110;11.522;2023-06-10T14:35:38;26.90;47.50
16521;DHT22;8373;48.110;11.522;2023-06-10T14:38:10;27.00;47.40
16521;DHT22;8373;48.110;11.522;2023-06-10T14:40:40;27.00;47.40
16521;DHT22;8373;48.110;11.522;2023-06-10T14:43:14;27.10;47.30
16521;DHT22;8373;48.110;11.522;2023-06-10T14:45:46;27.00;47.00
16521;DHT22;8373;48.110;11.522;2023-06-10T14:48:19;27.00;48.00
16521;DHT22;8373;48.110;11.522;2023-06-10T14:50:57;26.90;47.80
16521;DHT22;8373;48.110;11.522;2023-06-10T14:53:34;26.90;46.90
16521;DHT22;8373;48.110;11.522;2023-06-10T14:56:09;26.80;47.20
16521;DHT22;8373;48.110;11.522;2023-06-10T14:58:42;26.80;47.40
16521;DHT22;8373;48.110;11.522;2023-06-10T15:01:12;26.70;46.80
16521;DHT22;8373;48.110;11.522;2023-06-10T15:03:49;26.70;46.40
16521;DHT22;8373;48.110;11.522;2023-06-10T15:06:26;26.60;46.40
16521;DHT22;8373;48.110;11.522;2023-06-10T15:09:34;26.50;46.40
16521;DHT22;8373;48.110;11.522;2023-06-10T15:12:48;26.50;47.00
16521;DHT22;8373;48.110;11.522;2023-06-10T15:15:24;26.50;48.40
16521;DHT22;8373;48.110;11.522;2023-06-10T15:17:56;26.40;48.10
16521;DHT22;8373;48.110;11.522;2023-06-10T15:20:27;26.40;48.40
16521;DHT22;8373;48.110;11.522;2023-06-10T15:23:00;26.40;48.30
16521;DHT22;8373;48.110;11.522;2023-06-10T15:25:35;26.50;48.90
16521;DHT22;8373;48.110;11.522;2023-06-10T15:28:08;26.60;50.00
16521;DHT22;8373;48.110;11.522;2023-06-10T15:30:38;26.60;50.30
16521;DHT22;8373;48.110;11.522;2023-06-10T15:33:10;26.70;50.80
16521;DHT22;8373;48.110;11.522;2023-06-10T15:35:47;26.70;50.80
16521;DHT22;8373;48.110;11.522;2023-06-10T15:38:20;26.70;50.90
16521;DHT22;8373;48.110;11.522;2023-06-10T15:40:53;26.80;51.20
16521;DHT22;8373;48.110;11.522;2023-06-10T15:43:27;26.70;51.10
16521;DHT22;8373;48.110;11.522;2023-06-10T15:46:03;26.70;50.90
16521;DHT22;8373;48.110;11.522;2023-06-10T15:48:32;26.70;50.80
16521;DHT22;8373;48.110;11.522;2023-06-10T15:51:00;26.70;50.40
16521;DHT22;8373;48.110;11.522;2023-06-10T15:53:27;26.70;50.10
16521;DHT22;8373;48.110;11.522;2023-06-10T15:55:56;26.70;49.80
16521;DHT22;8373;48.110;11.522;2023-06-10T15:58:23;26.60;49.50
16521;DHT22;8373;48.110;11.522;2023-06-10T16:00:51;26.60;48.90
16521;DHT22;8373;48.110;11.522;2023-06-10T16:03:18;26.60;48.70
16521;DHT22;8373;48.110;11.522;2023-06-10T16:05:45;26.60;48.70
16521;DHT22;8373;48.110;11.522;2023-06-10T16:08:12;26.60;49.20
16521;DHT22;8373;48.110;11.522;2023-06-10T16:10:40;26.40;49.30
16521;DHT22;8373;48.110;11.522;2023-06-10T16:13:08;26.40;49.80
16521;DHT22;8373;48.110;11.522;2023-06-10T16:15:35;26.40;49.90
16521;DHT22;8373;48.110;11.522;2023-06-10T16:18:03;26.30;50.30
16521;DHT22;8373;48.110;11.522;2023-06-10T16:20:30;26.20;50.80
16521;DHT22;8373;48.110;11.522;2023-06-10T16:23:01;26.10;51.30
16521;DHT22;8373;48.110;11.522;2023-06-10T16:25:30;26.10;52.40
16521;DHT22;8373;48.110;11.522;2023-06-10T16:28:02;26.00;52.90
16521;DHT22;8373;48.110;11.522;2023-06-10T16:30:35;26.00;53.00
16521;DHT22;8373;48.110;11.522;2023-06-10T16:33:05;26.00;53.30
16521;DHT22;8373;48.110;11.522;2023-06-10T16:35:35;25.90;52.90
16521;DHT22;8373;48.110;11.522;2023-06-10T16:38:04;25.80;52.70
16521;DHT22;8373;48.110;11.522;2023-06-10T16:40:32;25.80;53.00
16521;DHT22;8373;48.110;11.522;2023-06-10T16:43:03;25.80;52.90
16521;DHT22;8373;48.110;11.522;2023-06-10T16:45:31;25.70;53.00
16521;DHT22;8373;48.110;11.522;2023-06-10T16:48:03;25.70;53.20
16521;DHT22;8373;48.110;11.522;2023-06-10T16:50:33;25.70;53.30